Forest City, North Carolina
Current Conditions -  °F | °C
As of 1:15 AM on Monday 26 Jan 2015 (Local Time) from KFQD Reporting Station
Clear Clear  
Wind Chill: 37°   Ceiling: Unl
Heat Index: 40°   Visibility: 10mi
Dew Point: 31°   Wind: 5mph
Humidity: 70%   Direction: 190°S
Pressure: 29.68"   Gusts: NA
Location:  35.33°N, 81.86°W
Report Text: KFQD 260615Z AUTO 19004KT 10SM CLR 05/00 A2968 RMK AO2 T00451005
Loading
Personal Weather Stations






























Interactive Weather Map New forecast layout! Learn more

10-Day Weather Forecast

Advertisements
Track Severe Weather on mobile